KJWG

Watonga Regional Airport

Watonga, Oklahoma, USA
METAR KJWG 230735Z AUTO 23008KT 7SM OVC004 01/01 A3018 RMK AO2 T00120012
Observed Flight Rules
Feb-23 @ 07:35 UTC (34 minutes ago) Instrument Flight Rules
Wind Visibility Clouds
230° at 8 knots 7 miles
  • Overcast at 400' AGL
Temperatures Readings
Current 1°C / 34°F
Dewpoint 1°C / 34°F
Humidity 100%
Altimeter 30.18" Hg
Pressure 1022 hPa
Elevation 472
METAR KJWG 230735Z AUTO 23008KT 7SM OVC004 01/01 A3018 RMK AO2 T00120012
Observed Flight Rules
Feb-23 @ 07:35 UTC
(34 minutes ago)
LIFR
Wind Visibility
230° at 8 knots 7 miles
Clouds
  • Overcast at 400' AGL
Temperature Dewpoint
1°C / 34°F 1°C / 34°F
Humidity Altimeter Pressure
100% 30.18" Hg 1022 hPa